createdAt,value
2019-02-18T00:00:43.079Z,9.63
2019-02-18T00:03:10.538Z,11.17
2019-02-18T00:05:37.963Z,11.27
2019-02-18T00:08:05.410Z,10.90
2019-02-18T00:10:32.812Z,10.40
2019-02-18T00:13:00.243Z,9.70
2019-02-18T00:15:27.689Z,9.97
2019-02-18T00:17:55.137Z,10.23
2019-02-18T00:20:22.596Z,10.37
2019-02-18T00:22:50.034Z,10.83
2019-02-18T00:25:17.471Z,11.00
2019-02-18T00:27:44.901Z,9.93
2019-02-18T00:30:12.341Z,8.50
2019-02-18T00:32:39.815Z,10.10
2019-02-18T00:35:07.255Z,9.23
2019-02-18T00:37:34.665Z,8.80
2019-02-18T00:40:02.123Z,8.90
2019-02-18T00:42:29.534Z,7.80
2019-02-18T00:44:56.945Z,8.97
2019-02-18T00:47:24.397Z,9.13
2019-02-18T00:49:51.791Z,8.83
2019-02-18T00:52:19.240Z,9.83
2019-02-18T00:54:46.674Z,8.53
2019-02-18T00:57:14.110Z,9.10
2019-02-18T00:59:41.522Z,9.00
2019-02-18T01:02:08.963Z,9.70
2019-02-18T01:04:36.388Z,8.60
2019-02-18T01:07:03.824Z,9.07
2019-02-18T01:09:31.249Z,9.13
2019-02-18T01:11:58.672Z,9.57
2019-02-18T01:14:26.205Z,8.50
2019-02-18T01:16:53.623Z,9.07
2019-02-18T01:19:21.045Z,8.33
2019-02-18T01:21:48.485Z,8.93
2019-02-18T01:24:15.899Z,7.37
2019-02-18T01:26:43.337Z,8.03
2019-02-18T01:29:10.744Z,8.10
2019-02-18T01:31:38.201Z,7.97
2019-02-18T01:34:05.619Z,8.77
2019-02-18T01:36:33.045Z,8.43
2019-02-18T01:39:00.487Z,7.57
2019-02-18T01:41:27.916Z,8.87
2019-02-18T01:43:55.361Z,8.47
2019-02-18T01:46:22.792Z,7.60
2019-02-18T01:48:50.241Z,8.30
2019-02-18T01:51:17.662Z,7.97
2019-02-18T01:53:45.111Z,7.23
2019-02-18T01:56:12.543Z,6.90
2019-02-18T01:58:39.973Z,7.50
2019-02-18T02:01:07.419Z,7.23
2019-02-18T02:03:34.856Z,7.43
2019-02-18T02:06:02.290Z,7.40
2019-02-18T02:08:29.700Z,6.90
2019-02-18T02:10:57.142Z,7.40
2019-02-18T02:13:30.238Z,7.60
2019-02-18T02:15:57.669Z,7.63
2019-02-18T02:18:25.088Z,7.40
2019-02-18T02:20:52.524Z,7.50
2019-02-18T02:23:19.970Z,6.50
2019-02-18T02:25:47.381Z,6.00
2019-02-18T02:28:14.797Z,5.90
2019-02-18T02:30:42.240Z,5.47
2019-02-18T02:33:09.695Z,5.83
2019-02-18T02:35:37.191Z,4.90
2019-02-18T02:38:07.734Z,5.43
2019-02-18T02:40:31.981Z,5.60
2019-02-18T02:42:59.400Z,5.10
2019-02-18T02:45:26.884Z,5.50
2019-02-18T02:47:54.288Z,5.47
2019-02-18T02:50:21.694Z,5.57
2019-02-18T02:52:49.141Z,5.30
2019-02-18T02:55:16.554Z,6.37
2019-02-18T02:57:43.996Z,5.77
2019-02-18T03:00:11.419Z,5.97
2019-02-18T03:02:38.871Z,6.30
2019-02-18T03:05:06.293Z,6.13
2019-02-18T03:07:33.741Z,6.20
2019-02-18T03:10:01.177Z,5.50
2019-02-18T03:12:28.590Z,5.80
2019-02-18T03:14:56.037Z,5.80
2019-02-18T03:17:23.504Z,6.07
2019-02-18T03:19:50.886Z,6.00
2019-02-18T03:22:18.306Z,5.63
2019-02-18T03:25:16.696Z,6.03
2019-02-18T03:27:44.100Z,5.67
2019-02-18T03:30:32.481Z,6.00
2019-02-18T03:32:59.904Z,6.30
2019-02-18T03:35:27.461Z,6.20
2019-02-18T03:37:54.877Z,5.80
2019-02-18T03:40:22.329Z,5.90
2019-02-18T03:42:49.739Z,6.10
2019-02-18T03:45:17.175Z,5.70
2019-02-18T03:47:44.602Z,5.73
2019-02-18T03:50:12.026Z,5.30
2019-02-18T03:52:39.478Z,6.00
2019-02-18T03:55:06.908Z,6.23
2019-02-18T03:57:34.346Z,6.30
2019-02-18T04:00:01.805Z,5.77
2019-02-18T04:02:29.223Z,6.50
2019-02-18T04:04:56.662Z,6.00
2019-02-18T04:07:24.080Z,5.90
2019-02-18T04:09:51.527Z,6.10
2019-02-18T04:12:18.929Z,6.27
2019-02-18T04:14:46.418Z,6.07
2019-02-18T04:17:13.825Z,6.57
2019-02-18T04:19:41.254Z,6.60
2019-02-18T04:22:08.689Z,6.17
2019-02-18T04:24:36.116Z,5.67
2019-02-18T04:27:03.525Z,5.57
2019-02-18T04:29:30.954Z,6.50
2019-02-18T04:31:58.386Z,6.17
2019-02-18T04:34:25.804Z,6.27
2019-02-18T04:36:53.234Z,6.30
2019-02-18T04:39:20.647Z,6.03
2019-02-18T04:41:48.072Z,7.00
2019-02-18T04:44:15.482Z,6.70
2019-02-18T04:46:42.937Z,5.80
2019-02-18T04:49:10.331Z,6.70
2019-02-18T04:51:37.782Z,5.70
2019-02-18T04:54:05.213Z,6.50
2019-02-18T04:56:32.634Z,6.20
2019-02-18T04:59:00.066Z,6.17
2019-02-18T05:01:27.503Z,5.90
2019-02-18T05:03:54.911Z,6.10
2019-02-18T05:06:22.363Z,6.40
2019-02-18T05:08:49.808Z,7.27
2019-02-18T05:11:17.221Z,7.30
2019-02-18T05:13:45.928Z,7.10
2019-02-18T05:16:12.122Z,7.07
2019-02-18T05:18:39.536Z,7.30
2019-02-18T05:21:06.969Z,7.57
2019-02-18T05:23:34.416Z,7.77
2019-02-18T05:26:01.824Z,7.10
2019-02-18T05:28:29.277Z,8.27
2019-02-18T05:30:56.701Z,7.43
2019-02-18T05:33:24.112Z,7.10
2019-02-18T05:35:51.586Z,6.97
2019-02-18T05:38:19.001Z,7.17
2019-02-18T05:40:46.411Z,7.37
2019-02-18T05:43:13.809Z,7.23
2019-02-18T05:45:41.248Z,7.67
2019-02-18T05:48:08.679Z,9.77
2019-02-18T05:50:36.159Z,8.13
2019-02-18T05:53:03.553Z,7.27
2019-02-18T05:55:31.211Z,7.33
2019-02-18T05:57:58.415Z,8.10
2019-02-18T06:00:25.863Z,7.47
2019-02-18T06:02:53.288Z,7.30
2019-02-18T06:05:20.704Z,7.23
2019-02-18T06:07:48.147Z,7.50
2019-02-18T06:10:17.162Z,8.83
2019-02-18T06:12:43.054Z,8.70
2019-02-18T06:15:10.476Z,6.93
2019-02-18T06:17:37.938Z,7.97
2019-02-18T06:20:05.355Z,6.83
2019-02-18T06:22:32.785Z,7.70
2019-02-18T06:25:00.400Z,6.80
2019-02-18T06:27:27.633Z,7.77
2019-02-18T06:29:55.076Z,8.17
2019-02-18T06:32:22.536Z,8.40
2019-02-18T06:34:49.964Z,8.20
2019-02-18T06:37:17.377Z,8.50
2019-02-18T06:39:44.851Z,8.00
2019-02-18T06:42:12.268Z,9.70
2019-02-18T06:44:39.684Z,8.07
2019-02-18T06:47:07.116Z,9.17
2019-02-18T06:49:34.571Z,11.07
2019-02-18T06:52:01.994Z,8.87
2019-02-18T06:54:29.398Z,8.47
2019-02-18T06:56:59.805Z,8.57
2019-02-18T06:59:33.136Z,8.57
2019-02-18T07:02:03.650Z,8.50
2019-02-18T07:04:43.139Z,8.50
2019-02-18T07:07:13.408Z,8.80
2019-02-18T07:09:50.519Z,10.37
2019-02-18T07:12:08.253Z,9.07
2019-02-18T07:14:35.675Z,8.97
2019-02-18T07:17:03.109Z,9.07
2019-02-18T07:19:30.519Z,10.93
2019-02-18T07:21:57.978Z,8.30
2019-02-18T07:24:25.403Z,8.97
2019-02-18T07:26:52.830Z,8.77
2019-02-18T07:29:20.270Z,9.33
2019-02-18T07:31:47.702Z,8.50
2019-02-18T07:34:15.133Z,9.50
2019-02-18T07:36:42.551Z,9.40
2019-02-18T07:39:09.965Z,9.93
2019-02-18T07:41:37.370Z,10.57
2019-02-18T07:44:04.841Z,12.97
2019-02-18T07:46:32.243Z,9.17
2019-02-18T07:48:59.679Z,9.43
2019-02-18T07:51:27.117Z,8.90
2019-02-18T07:53:54.522Z,9.20
2019-02-18T07:56:21.964Z,8.80
2019-02-18T07:58:49.396Z,9.40
2019-02-18T08:01:16.842Z,9.13
2019-02-18T08:03:44.246Z,9.20
2019-02-18T08:06:11.650Z,9.80
2019-02-18T08:08:39.075Z,9.83
2019-02-18T08:11:06.485Z,9.70
2019-02-18T08:13:33.883Z,9.50
2019-02-18T08:16:01.309Z,10.00
2019-02-18T08:18:28.715Z,9.40
2019-02-18T08:20:56.125Z,9.63
2019-02-18T08:23:23.587Z,9.37
2019-02-18T08:25:50.954Z,9.83
2019-02-18T08:28:18.394Z,9.53
2019-02-18T08:30:45.822Z,10.30
2019-02-18T08:33:13.216Z,10.17
2019-02-18T08:35:40.650Z,9.77
2019-02-18T08:38:08.044Z,10.00
2019-02-18T08:40:35.470Z,10.30
2019-02-18T08:43:02.879Z,9.57
2019-02-18T08:45:30.296Z,9.90
2019-02-18T08:47:57.767Z,9.63
2019-02-18T08:50:25.178Z,10.50
2019-02-18T08:52:52.613Z,10.10
2019-02-18T08:55:20.015Z,9.73
2019-02-18T08:57:47.447Z,10.60
2019-02-18T09:00:14.868Z,10.37
2019-02-18T09:02:42.352Z,9.97
2019-02-18T09:05:09.744Z,11.80
2019-02-18T09:07:37.144Z,10.17
2019-02-18T09:10:10.338Z,11.27
2019-02-18T09:12:37.756Z,11.80
2019-02-18T09:15:05.199Z,11.77
2019-02-18T09:17:32.595Z,11.60
2019-02-18T09:20:00.020Z,11.53
2019-02-18T09:22:30.130Z,9.17
2019-02-18T09:25:03.195Z,9.80
2019-02-18T09:27:30.635Z,10.37
2019-02-18T09:29:58.073Z,10.10
2019-02-18T09:32:25.479Z,10.07
2019-02-18T09:34:53.188Z,10.27
2019-02-18T09:37:20.318Z,10.97
2019-02-18T09:39:47.748Z,9.87
2019-02-18T09:42:15.155Z,9.93
2019-02-18T09:44:42.586Z,10.03
2019-02-18T09:47:09.990Z,10.17
2019-02-18T09:49:37.417Z,10.13
2019-02-18T09:52:04.820Z,9.43
2019-02-18T09:54:32.241Z,9.97
2019-02-18T09:56:59.707Z,10.03
2019-02-18T09:59:27.118Z,9.93
2019-02-18T10:01:54.551Z,9.90
2019-02-18T10:04:22.708Z,9.83
2019-02-18T10:06:49.394Z,9.47
2019-02-18T10:09:16.818Z,9.83
2019-02-18T10:11:44.232Z,9.00
2019-02-18T10:14:11.674Z,10.47
2019-02-18T10:16:39.115Z,9.83
2019-02-18T10:19:06.523Z,10.57
2019-02-18T10:21:33.970Z,9.97
2019-02-18T10:24:01.368Z,9.27
2019-02-18T10:26:28.769Z,9.77
2019-02-18T10:28:56.203Z,9.13
2019-02-18T10:31:23.605Z,9.80
2019-02-18T10:33:51.032Z,9.27
2019-02-18T10:36:18.481Z,9.07
2019-02-18T10:38:45.891Z,9.93
2019-02-18T10:41:13.310Z,9.27
2019-02-18T10:43:40.711Z,8.53
2019-02-18T10:46:08.152Z,9.57
2019-02-18T10:48:35.563Z,9.03
2019-02-18T10:51:02.972Z,9.73
2019-02-18T10:53:30.409Z,10.53
2019-02-18T10:55:57.826Z,8.80
2019-02-18T10:58:25.256Z,9.87
2019-02-18T11:00:52.653Z,9.67
2019-02-18T11:03:20.075Z,9.60
2019-02-18T11:05:47.502Z,9.17
2019-02-18T11:08:14.935Z,9.50
2019-02-18T11:10:42.339Z,9.73
2019-02-18T11:13:09.742Z,9.57
2019-02-18T11:15:37.173Z,9.40
2019-02-18T11:18:04.622Z,9.30
2019-02-18T11:20:32.020Z,9.33
2019-02-18T11:22:59.442Z,8.97
2019-02-18T11:25:26.878Z,9.10
2019-02-18T11:27:54.300Z,9.00
2019-02-18T11:30:21.707Z,9.30
2019-02-18T11:32:49.124Z,8.80
2019-02-18T11:35:16.567Z,9.07
2019-02-18T11:37:43.960Z,8.93
2019-02-18T11:40:14.094Z,8.77
2019-02-18T11:42:41.528Z,8.87
2019-02-18T11:45:08.960Z,9.27
2019-02-18T11:47:36.379Z,8.57
2019-02-18T11:50:03.808Z,7.80
2019-02-18T11:52:31.200Z,7.47
2019-02-18T11:54:58.620Z,7.70
2019-02-18T11:57:26.047Z,8.17
2019-02-18T11:59:53.470Z,7.90
2019-02-18T12:02:20.889Z,7.23
2019-02-18T12:04:48.311Z,7.83
2019-02-18T12:07:15.712Z,8.00
2019-02-18T12:09:43.200Z,8.10
2019-02-18T12:12:10.534Z,8.70
2019-02-18T12:14:38.020Z,8.27
2019-02-18T12:17:05.466Z,8.50
2019-02-18T12:19:32.849Z,8.23
2019-02-18T12:22:00.277Z,7.70
2019-02-18T12:24:27.740Z,8.07
2019-02-18T12:26:55.158Z,7.80
2019-02-18T12:29:26.468Z,7.83
2019-02-18T12:31:49.986Z,8.53
2019-02-18T12:34:17.388Z,8.50
2019-02-18T12:36:44.824Z,10.70
2019-02-18T12:39:12.238Z,9.47
2019-02-18T12:41:48.190Z,9.03
2019-02-18T12:44:07.051Z,7.73
2019-02-18T12:46:34.486Z,8.17
2019-02-18T12:49:01.883Z,7.27
2019-02-18T12:51:29.315Z,8.77
2019-02-18T12:54:04.785Z,8.10
2019-02-18T12:56:24.131Z,8.77
2019-02-18T12:58:54.627Z,9.80
2019-02-18T13:01:18.958Z,8.87
2019-02-18T13:03:46.354Z,7.67
2019-02-18T13:06:13.778Z,7.93
2019-02-18T13:08:41.201Z,8.27
2019-02-18T13:11:08.614Z,7.70
2019-02-18T13:13:36.059Z,8.10
2019-02-18T13:16:03.497Z,8.47
2019-02-18T13:18:30.911Z,8.50
2019-02-18T13:20:58.375Z,8.60
2019-02-18T13:23:25.754Z,7.73
2019-02-18T13:25:53.177Z,9.00
2019-02-18T13:28:20.578Z,7.57
2019-02-18T13:30:47.979Z,7.90
2019-02-18T13:33:15.450Z,8.20
2019-02-18T13:35:42.862Z,7.70
2019-02-18T13:38:10.285Z,7.00
2019-02-18T13:40:37.694Z,7.50
2019-02-18T13:43:05.138Z,7.57
2019-02-18T13:45:32.536Z,8.60
2019-02-18T13:48:00.058Z,8.10
2019-02-18T13:50:27.413Z,7.50
2019-02-18T13:52:54.824Z,9.30
2019-02-18T13:55:22.260Z,7.60
2019-02-18T13:57:49.679Z,7.00
2019-02-18T14:00:20.044Z,7.87
2019-02-18T14:02:47.465Z,6.83
2019-02-18T14:05:14.855Z,7.00
2019-02-18T14:07:42.274Z,7.00
2019-02-18T14:10:09.705Z,6.73
2019-02-18T14:12:37.105Z,7.57
2019-02-18T14:15:04.502Z,7.63
2019-02-18T14:17:31.930Z,7.20
2019-02-18T14:19:59.381Z,7.70
2019-02-18T14:22:26.772Z,7.13
2019-02-18T14:24:54.192Z,6.63
2019-02-18T14:27:21.629Z,7.13
2019-02-18T14:29:49.031Z,7.27
2019-02-18T14:32:16.452Z,7.80
2019-02-18T14:34:43.847Z,7.60
2019-02-18T14:37:11.276Z,7.17
2019-02-18T14:39:38.722Z,7.17
2019-02-18T14:42:06.133Z,8.03
2019-02-18T14:44:33.539Z,8.50
2019-02-18T14:47:00.952Z,8.40
2019-02-18T14:49:28.375Z,27.73
2019-02-18T14:51:55.799Z,10.97
2019-02-18T14:54:23.223Z,8.10
2019-02-18T14:56:50.617Z,7.80
2019-02-18T14:59:18.055Z,7.47
2019-02-18T15:01:45.491Z,6.93
2019-02-18T15:04:12.898Z,7.85
2019-02-18T15:06:40.292Z,8.07
2019-02-18T15:09:07.708Z,7.90
2019-02-18T15:11:35.105Z,6.73
2019-02-18T15:14:02.541Z,7.60
2019-02-18T15:16:29.939Z,6.97
2019-02-18T15:18:57.370Z,8.10
2019-02-18T15:21:24.774Z,8.07
2019-02-18T15:23:52.189Z,7.73
2019-02-18T15:26:19.620Z,7.00
2019-02-18T15:28:47.040Z,8.00
2019-02-18T15:31:14.472Z,7.93
2019-02-18T15:33:41.884Z,7.87
2019-02-18T15:36:09.330Z,7.77
2019-02-18T15:38:36.729Z,8.37
2019-02-18T15:41:04.148Z,8.03
2019-02-18T15:43:32.949Z,8.20
2019-02-18T15:45:58.974Z,7.53
2019-02-18T15:48:26.419Z,7.80
2019-02-18T15:50:53.857Z,8.00
2019-02-18T15:53:21.312Z,8.03
2019-02-18T15:55:48.748Z,7.50
2019-02-18T15:58:16.164Z,8.43
2019-02-18T16:00:43.571Z,8.40
2019-02-18T16:03:11.033Z,9.13
2019-02-18T16:05:38.466Z,8.93
2019-02-18T16:08:05.906Z,9.03
2019-02-18T16:10:33.335Z,8.73
2019-02-18T16:13:00.756Z,9.33
2019-02-18T16:15:28.183Z,9.80
2019-02-18T16:17:55.616Z,9.87
2019-02-18T16:20:23.015Z,10.00
2019-02-18T16:22:50.437Z,9.23
2019-02-18T16:25:17.843Z,9.10
2019-02-18T16:27:45.242Z,8.60
2019-02-18T16:30:12.675Z,8.77
2019-02-18T16:32:40.084Z,8.63
2019-02-18T16:35:07.509Z,8.93
2019-02-18T16:37:34.907Z,9.57
2019-02-18T16:40:02.328Z,8.93
2019-02-18T16:42:29.735Z,9.17
2019-02-18T16:44:57.167Z,8.50
2019-02-18T16:47:24.576Z,9.47
2019-02-18T16:49:52.019Z,10.70
2019-02-18T16:52:19.432Z,11.00
2019-02-18T16:54:46.847Z,11.43
2019-02-18T16:57:14.277Z,13.87
2019-02-18T16:59:41.707Z,13.47
2019-02-18T17:02:09.124Z,11.80
2019-02-18T17:04:36.536Z,13.13
2019-02-18T17:07:03.975Z,12.00
2019-02-18T17:09:31.384Z,12.10
2019-02-18T17:11:58.799Z,10.37
2019-02-18T17:14:26.230Z,9.17
2019-02-18T17:16:53.645Z,10.03
2019-02-18T17:19:21.078Z,9.73
2019-02-18T17:21:48.487Z,9.70
2019-02-18T17:24:15.939Z,10.00
2019-02-18T17:26:43.345Z,10.20
2019-02-18T17:29:10.785Z,9.40
2019-02-18T17:31:41.158Z,9.33
2019-02-18T17:34:08.586Z,9.87
2019-02-18T17:36:36.035Z,9.50
2019-02-18T17:39:03.441Z,8.40
2019-02-18T17:41:30.864Z,8.97
2019-02-18T17:43:58.289Z,8.77
2019-02-18T17:46:25.779Z,8.33
2019-02-18T17:48:53.213Z,8.30
2019-02-18T17:51:20.723Z,8.27
2019-02-18T17:53:48.190Z,8.33
2019-02-18T17:56:15.592Z,8.50
2019-02-18T17:58:43.092Z,8.23
2019-02-18T18:01:10.492Z,9.13
2019-02-18T18:03:37.934Z,8.73
2019-02-18T18:06:05.343Z,9.80
2019-02-18T18:08:32.755Z,10.53
2019-02-18T18:11:00.180Z,11.13
2019-02-18T18:13:27.580Z,10.73
2019-02-18T18:15:55.022Z,10.43
2019-02-18T18:18:22.467Z,10.50
2019-02-18T18:20:49.914Z,10.00
2019-02-18T18:23:17.318Z,11.03
2019-02-18T18:25:44.747Z,12.83
2019-02-18T18:28:12.175Z,12.03
2019-02-18T18:30:39.608Z,11.67
2019-02-18T18:33:07.029Z,10.83
2019-02-18T18:35:34.491Z,10.63
2019-02-18T18:38:01.881Z,11.63
2019-02-18T18:40:29.315Z,11.43
2019-02-18T18:42:56.750Z,11.03
2019-02-18T18:45:24.300Z,11.40
2019-02-18T18:47:51.707Z,11.03
2019-02-18T18:50:21.811Z,9.50
2019-02-18T18:52:49.247Z,10.00
2019-02-18T18:55:16.696Z,10.53
2019-02-18T18:57:44.127Z,10.37
2019-02-18T19:00:17.323Z,11.10
2019-02-18T19:02:44.776Z,10.60
2019-02-18T19:05:12.196Z,9.33
2019-02-18T19:07:39.633Z,9.30
2019-02-18T19:10:07.059Z,9.27
2019-02-18T19:12:34.491Z,9.47
2019-02-18T19:15:01.951Z,9.57
2019-02-18T19:17:29.356Z,10.00
2019-02-18T19:19:58.206Z,9.33
2019-02-18T19:22:24.219Z,10.57
2019-02-18T19:24:51.652Z,9.77
2019-02-18T19:27:19.062Z,10.40
2019-02-18T19:29:46.484Z,10.20
2019-02-18T19:32:13.929Z,11.00
2019-02-18T19:34:41.371Z,11.17
2019-02-18T19:37:08.802Z,12.20
2019-02-18T19:39:36.221Z,15.27
2019-02-18T19:42:03.634Z,15.43
2019-02-18T19:44:31.072Z,13.20
2019-02-18T19:46:58.501Z,13.27
2019-02-18T19:49:25.957Z,13.10
2019-02-18T19:51:53.364Z,12.73
2019-02-18T19:54:20.807Z,13.87
2019-02-18T19:56:48.228Z,13.60
2019-02-18T19:59:15.663Z,11.90
2019-02-18T20:01:43.071Z,12.60
2019-02-18T20:04:10.570Z,10.00
2019-02-18T20:06:37.948Z,9.83
2019-02-18T20:09:05.409Z,10.50
2019-02-18T20:11:32.851Z,10.63
2019-02-18T20:14:00.249Z,10.33
2019-02-18T20:16:27.728Z,9.73
2019-02-18T20:18:55.197Z,10.43
2019-02-18T20:21:22.630Z,10.00
2019-02-18T20:23:50.079Z,10.67
2019-02-18T20:26:17.540Z,11.93
2019-02-18T20:28:44.977Z,10.30
2019-02-18T20:31:12.430Z,10.77
2019-02-18T20:33:39.848Z,11.27
2019-02-18T20:36:07.254Z,10.50
2019-02-18T20:38:34.690Z,10.73
2019-02-18T20:41:02.138Z,11.43
2019-02-18T20:43:29.544Z,11.13
2019-02-18T20:45:57.009Z,11.17
2019-02-18T20:48:24.430Z,11.13
2019-02-18T20:50:51.897Z,11.17
2019-02-18T20:53:19.302Z,11.00
2019-02-18T20:55:46.744Z,10.70
2019-02-18T20:58:14.249Z,10.70
2019-02-18T21:00:41.711Z,12.20
2019-02-18T21:03:09.113Z,10.50
2019-02-18T21:05:36.540Z,11.43
2019-02-18T21:08:03.960Z,10.83
2019-02-18T21:10:31.375Z,12.03
2019-02-18T21:12:58.812Z,11.33
2019-02-18T21:15:26.220Z,11.93
2019-02-18T21:17:53.644Z,12.17
2019-02-18T21:20:21.090Z,11.63
2019-02-18T21:22:48.532Z,11.73
2019-02-18T21:25:15.977Z,11.47
2019-02-18T21:27:43.375Z,11.40
2019-02-18T21:30:16.839Z,11.20
2019-02-18T21:32:44.243Z,11.13
2019-02-18T21:35:11.756Z,11.63
2019-02-18T21:37:39.106Z,12.80
2019-02-18T21:40:06.526Z,11.97
2019-02-18T21:42:33.974Z,12.37
2019-02-18T21:45:01.408Z,11.67
2019-02-18T21:47:28.825Z,12.07
2019-02-18T21:49:56.292Z,11.93
2019-02-18T21:52:23.715Z,11.30
2019-02-18T21:54:51.158Z,11.37
2019-02-18T21:57:18.575Z,12.13
2019-02-18T21:59:45.996Z,12.33
2019-02-18T22:02:13.462Z,12.20
2019-02-18T22:04:40.907Z,11.87
2019-02-18T22:07:08.384Z,11.60
2019-02-18T22:09:35.787Z,11.43
2019-02-18T22:12:03.257Z,11.53
2019-02-18T22:14:33.347Z,11.07
2019-02-18T22:16:58.096Z,11.23
2019-02-18T22:19:25.524Z,11.33
2019-02-18T22:21:52.948Z,11.23
2019-02-18T22:24:20.387Z,11.93
2019-02-18T22:26:47.824Z,10.97
2019-02-18T22:29:15.245Z,11.23
2019-02-18T22:31:42.649Z,10.70
2019-02-18T22:34:10.076Z,11.23
2019-02-18T22:36:37.491Z,10.93
2019-02-18T22:39:04.911Z,11.70
2019-02-18T22:41:32.329Z,10.43
2019-02-18T22:43:59.761Z,10.37
2019-02-18T22:46:27.162Z,10.07
2019-02-18T22:48:54.603Z,10.53
2019-02-18T22:51:22.032Z,10.37
2019-02-18T22:53:49.490Z,10.37
2019-02-18T22:56:16.896Z,11.10
2019-02-18T22:58:44.294Z,9.87
2019-02-18T23:01:11.712Z,10.13
2019-02-18T23:03:39.114Z,10.27
2019-02-18T23:06:06.535Z,11.07
2019-02-18T23:08:33.947Z,10.70
2019-02-18T23:11:01.377Z,10.87
2019-02-18T23:13:28.797Z,11.60
2019-02-18T23:15:56.572Z,11.43
2019-02-18T23:18:23.651Z,12.00
2019-02-18T23:20:51.069Z,12.80
2019-02-18T23:23:18.508Z,13.30
2019-02-18T23:25:45.917Z,12.63
2019-02-18T23:28:13.329Z,12.87
2019-02-18T23:30:40.798Z,13.57
2019-02-18T23:33:08.211Z,12.80
2019-02-18T23:35:35.612Z,12.97
2019-02-18T23:38:03.048Z,13.50
2019-02-18T23:40:30.456Z,13.77
2019-02-18T23:42:57.856Z,14.60
2019-02-18T23:45:25.311Z,14.37
2019-02-18T23:47:52.716Z,14.53
2019-02-18T23:50:20.233Z,15.10
2019-02-18T23:52:47.654Z,15.17
2019-02-18T23:55:15.049Z,15.47
2019-02-18T23:57:42.497Z,16.40
